sensor_id;sensor_type;location;lat;lon;timestamp;pressure;altitude;pressure_sealevel;temperature;humidity
76832;BME280;65792;52.880;13.012;2022-12-05T00:04:00;101509.75;;;0.72;97.64
76832;BME280;65792;52.880;13.012;2022-12-05T00:06:28;101507.22;;;0.72;98.03
76832;BME280;65792;52.880;13.012;2022-12-05T00:08:55;101509.75;;;0.72;98.09
76832;BME280;65792;52.880;13.012;2022-12-05T00:11:26;101501.25;;;0.75;97.96
76832;BME280;65792;52.880;13.012;2022-12-05T00:13:53;101506.41;;;0.70;97.81
76832;BME280;65792;52.880;13.012;2022-12-05T00:16:23;101508.03;;;0.74;97.76
76832;BME280;65792;52.880;13.012;2022-12-05T00:18:49;101504.66;;;0.75;97.85
76832;BME280;65792;52.880;13.012;2022-12-05T00:21:20;101502.13;;;0.72;97.86
76832;BME280;65792;52.880;13.012;2022-12-05T00:23:46;101514.00;;;0.73;97.79
76832;BME280;65792;52.880;13.012;2022-12-05T00:26:12;101511.44;;;0.73;98.19
76832;BME280;65792;52.880;13.012;2022-12-05T00:28:38;101505.53;;;0.73;98.04
76832;BME280;65792;52.880;13.012;2022-12-05T00:31:10;101508.03;;;0.74;98.28
76832;BME280;65792;52.880;13.012;2022-12-05T00:33:36;101506.34;;;0.75;98.29
76832;BME280;65792;52.880;13.012;2022-12-05T00:36:08;101510.59;;;0.74;98.35
76832;BME280;65792;52.880;13.012;2022-12-05T00:38:34;101509.72;;;0.75;97.95
76832;BME280;65792;52.880;13.012;2022-12-05T00:41:14;101509.72;;;0.75;97.93
76832;BME280;65792;52.880;13.012;2022-12-05T00:43:40;101509.72;;;0.75;98.51
76832;BME280;65792;52.880;13.012;2022-12-05T00:46:11;101502.06;;;0.77;98.07
76832;BME280;65792;52.880;13.012;2022-12-05T00:48:37;101494.47;;;0.74;97.94
76832;BME280;65792;52.880;13.012;2022-12-05T00:53:30;101497.88;;;0.74;98.16
76832;BME280;65792;52.880;13.012;2022-12-05T00:56:00;101488.50;;;0.76;97.94
76832;BME280;65792;52.880;13.012;2022-12-05T00:58:25;101486.78;;;0.78;98.14
76832;BME280;65792;52.880;13.012;2022-12-05T01:00:51;101484.28;;;0.77;98.31
76832;BME280;65792;52.880;13.012;2022-12-05T01:03:17;101486.78;;;0.78;98.37
76832;BME280;65792;52.880;13.012;2022-12-05T01:05:45;101480.03;;;0.77;97.97
76832;BME280;65792;52.880;13.012;2022-12-05T01:08:11;101484.25;;;0.78;98.01
76832;BME280;65792;52.880;13.012;2022-12-05T01:10:39;101480.84;;;0.79;98.26
76832;BME280;65792;52.880;13.012;2022-12-05T01:13:05;101482.56;;;0.77;98.48
76832;BME280;65792;52.880;13.012;2022-12-05T01:15:30;101481.69;;;0.80;98.53
76832;BME280;65792;52.880;13.012;2022-12-05T01:17:56;101483.38;;;0.81;98.39
76832;BME280;65792;52.880;13.012;2022-12-05T01:20:21;101484.19;;;0.83;98.32
76832;BME280;65792;52.880;13.012;2022-12-05T01:22:47;101477.41;;;0.83;98.35
76832;BME280;65792;52.880;13.012;2022-12-05T01:25:13;101479.09;;;0.84;98.09
76832;BME280;65792;52.880;13.012;2022-12-05T01:27:38;101481.66;;;0.83;98.00
76832;BME280;65792;52.880;13.012;2022-12-05T01:30:05;101473.16;;;0.84;98.35
76832;BME280;65792;52.880;13.012;2022-12-05T01:32:30;101471.44;;;0.86;97.96
76832;BME280;65792;52.880;13.012;2022-12-05T01:34:56;101477.38;;;0.86;98.23
76832;BME280;65792;52.880;13.012;2022-12-05T01:37:22;101472.22;;;0.88;98.14
76832;BME280;65792;52.880;13.012;2022-12-05T01:39:48;101471.38;;;0.89;97.89
76832;BME280;65792;52.880;13.012;2022-12-05T01:42:49;101473.91;;;0.89;98.17
76832;BME280;65792;52.880;13.012;2022-12-05T01:45:20;101466.28;;;0.87;98.38
76832;BME280;65792;52.880;13.012;2022-12-05T01:47:47;101467.97;;;0.88;98.41
76832;BME280;65792;52.880;13.012;2022-12-05T01:50:12;101461.16;;;0.90;98.01
76832;BME280;65792;52.880;13.012;2022-12-05T01:52:38;101456.97;;;0.88;98.36
76832;BME280;65792;52.880;13.012;2022-12-05T01:55:09;101464.56;;;0.89;98.19
76832;BME280;65792;52.880;13.012;2022-12-05T01:57:36;101467.13;;;0.89;98.44
76832;BME280;65792;52.880;13.012;2022-12-05T02:00:10;101473.88;;;0.90;98.08
76832;BME280;65792;52.880;13.012;2022-12-05T02:02:39;101463.69;;;0.92;98.41
76832;BME280;65792;52.880;13.012;2022-12-05T02:05:30;101459.47;;;0.91;98.56
76832;BME280;65792;52.880;13.012;2022-12-05T02:07:57;101460.31;;;0.91;98.66
76832;BME280;65792;52.880;13.012;2022-12-05T02:10:25;101471.34;;;0.90;98.47
76832;BME280;65792;52.880;13.012;2022-12-05T02:12:53;101462.81;;;0.94;98.04
76832;BME280;65792;52.880;13.012;2022-12-05T02:15:39;101469.59;;;0.94;98.29
76832;BME280;65792;52.880;13.012;2022-12-05T02:27:06;101471.31;;;0.93;98.56
76832;BME280;65792;52.880;13.012;2022-12-05T02:37:51;101464.50;;;0.95;98.43
76832;BME280;65792;52.880;13.012;2022-12-05T02:40:29;101460.25;;;0.94;98.61
76832;BME280;65792;52.880;13.012;2022-12-05T02:43:02;101461.09;;;0.95;98.27
76832;BME280;65792;52.880;13.012;2022-12-05T02:45:35;101456.84;;;0.95;98.60
76832;BME280;65792;52.880;13.012;2022-12-05T02:48:03;101458.53;;;0.96;98.76
76832;BME280;65792;52.880;13.012;2022-12-05T02:50:33;101456.81;;;0.98;98.47
76832;BME280;65792;52.880;13.012;2022-12-05T02:53:03;101447.50;;;0.97;98.44
76832;BME280;65792;52.880;13.012;2022-12-05T02:55:31;101453.44;;;0.98;98.20
76832;BME280;65792;52.880;13.012;2022-12-05T02:58:02;101455.13;;;0.99;98.28
76832;BME280;65792;52.880;13.012;2022-12-05T03:00:29;101455.94;;;0.99;98.76
76832;BME280;65792;52.880;13.012;2022-12-05T03:02:58;101458.50;;;0.99;98.85
76832;BME280;65792;52.880;13.012;2022-12-05T03:05:29;101454.28;;;0.98;98.69
76832;BME280;65792;52.880;13.012;2022-12-05T03:07:59;101449.19;;;0.97;98.57
76832;BME280;65792;52.880;13.012;2022-12-05T03:10:28;101449.19;;;0.98;98.58
76832;BME280;65792;52.880;13.012;2022-12-05T03:12:59;101459.34;;;0.98;98.73
76832;BME280;65792;52.880;13.012;2022-12-05T03:15:32;101447.47;;;1.00;98.43
76832;BME280;65792;52.880;13.012;2022-12-05T03:18:23;101451.72;;;0.98;98.83
76832;BME280;65792;52.880;13.012;2022-12-05T03:21:07;101454.28;;;0.98;98.53
76832;BME280;65792;52.880;13.012;2022-12-05T03:23:40;101442.38;;;1.00;98.52
76832;BME280;65792;52.880;13.012;2022-12-05T03:29:05;101443.22;;;1.01;98.44
76832;BME280;65792;52.880;13.012;2022-12-05T03:34:20;101440.66;;;1.01;98.50
76832;BME280;65792;52.880;13.012;2022-12-05T03:36:52;101437.28;;;0.99;98.62
76832;BME280;65792;52.880;13.012;2022-12-05T03:39:29;101444.06;;;1.02;98.93
76832;BME280;65792;52.880;13.012;2022-12-05T03:41:58;101439.81;;;1.00;98.64
76832;BME280;65792;52.880;13.012;2022-12-05T03:44:35;101436.41;;;1.02;98.94
76832;BME280;65792;52.880;13.012;2022-12-05T03:47:20;101431.31;;;1.02;98.85
76832;BME280;65792;52.880;13.012;2022-12-05T03:49:53;101427.94;;;1.01;98.74
76832;BME280;65792;52.880;13.012;2022-12-05T03:52:33;101429.63;;;1.02;98.75
76832;BME280;65792;52.880;13.012;2022-12-05T03:55:04;101435.56;;;1.01;98.92
76832;BME280;65792;52.880;13.012;2022-12-05T03:57:36;101434.69;;;1.04;98.91
76832;BME280;65792;52.880;13.012;2022-12-05T04:00:11;101425.34;;;1.04;98.80
76832;BME280;65792;52.880;13.012;2022-12-05T04:02:44;101425.38;;;1.03;98.68
76832;BME280;65792;52.880;13.012;2022-12-05T04:05:37;101429.56;;;1.05;98.61
76832;BME280;65792;52.880;13.012;2022-12-05T04:08:14;101433.00;;;1.04;98.52
76832;BME280;65792;52.880;13.012;2022-12-05T04:10:45;101432.13;;;1.05;98.79
76832;BME280;65792;52.880;13.012;2022-12-05T04:13:32;101419.38;;;1.07;98.46
76832;BME280;65792;52.880;13.012;2022-12-05T04:16:29;101424.50;;;1.05;98.48
76832;BME280;65792;52.880;13.012;2022-12-05T04:19:29;101426.16;;;1.08;98.63
76832;BME280;65792;52.880;13.012;2022-12-05T04:22:18;101426.97;;;1.10;98.48
76832;BME280;65792;52.880;13.012;2022-12-05T04:24:45;101428.66;;;1.09;98.61
76832;BME280;65792;52.880;13.012;2022-12-05T04:30:16;101431.19;;;1.11;98.50
76832;BME280;65792;52.880;13.012;2022-12-05T04:32:47;101428.63;;;1.12;98.80
76832;BME280;65792;52.880;13.012;2022-12-05T04:35:19;101422.69;;;1.13;98.36
76832;BME280;65792;52.880;13.012;2022-12-05T04:37:50;101422.69;;;1.12;98.37
76832;BME280;65792;52.880;13.012;2022-12-05T04:40:30;101424.41;;;1.11;98.59
76832;BME280;65792;52.880;13.012;2022-12-05T04:42:58;101428.66;;;1.11;98.34
76832;BME280;65792;52.880;13.012;2022-12-05T04:45:26;101432.84;;;1.15;98.41
76832;BME280;65792;52.880;13.012;2022-12-05T04:47:56;101429.44;;;1.14;98.63
76832;BME280;65792;52.880;13.012;2022-12-05T04:50:26;101426.06;;;1.14;98.32
76832;BME280;65792;52.880;13.012;2022-12-05T04:52:56;101432.00;;;1.14;98.48
76832;BME280;65792;52.880;13.012;2022-12-05T04:55:24;101433.72;;;1.12;98.64
76832;BME280;65792;52.880;13.012;2022-12-05T05:00:30;101424.34;;;1.14;98.25
76832;BME280;65792;52.880;13.012;2022-12-05T05:03:25;101428.59;;;1.14;98.36
76832;BME280;65792;52.880;13.012;2022-12-05T05:05:54;101432.00;;;1.13;98.30
76832;BME280;65792;52.880;13.012;2022-12-05T05:08:23;101425.25;;;1.12;98.66
76832;BME280;65792;52.880;13.012;2022-12-05T05:11:12;101426.06;;;1.14;98.21
76832;BME280;65792;52.880;13.012;2022-12-05T05:13:39;101428.59;;;1.14;98.05
76832;BME280;65792;52.880;13.012;2022-12-05T05:16:05;101423.50;;;1.14;98.38
76832;BME280;65792;52.880;13.012;2022-12-05T05:18:31;101430.34;;;1.12;98.68
76832;BME280;65792;52.880;13.012;2022-12-05T05:20:57;101426.91;;;1.13;98.56
76832;BME280;65792;52.880;13.012;2022-12-05T05:23:22;101430.38;;;1.09;98.44
76832;BME280;65792;52.880;13.012;2022-12-05T05:25:54;101424.41;;;1.11;98.46
76832;BME280;65792;52.880;13.012;2022-12-05T05:28:21;101427.78;;;1.12;98.46
76832;BME280;65792;52.880;13.012;2022-12-05T05:30:47;101426.09;;;1.12;98.56
76832;BME280;65792;52.880;13.012;2022-12-05T05:33:14;101421.84;;;1.13;98.38
76832;BME280;65792;52.880;13.012;2022-12-05T05:35:39;101420.13;;;1.13;98.13
76832;BME280;65792;52.880;13.012;2022-12-05T05:38:05;101421.00;;;1.12;98.52
76832;BME280;65792;52.880;13.012;2022-12-05T05:40:34;101417.59;;;1.12;98.52
76832;BME280;65792;52.880;13.012;2022-12-05T05:43:00;101424.38;;;1.13;98.24
76832;BME280;65792;52.880;13.012;2022-12-05T05:45:26;101424.38;;;1.13;98.07
76832;BME280;65792;52.880;13.012;2022-12-05T05:47:51;101425.22;;;1.13;98.60
76832;BME280;65792;52.880;13.012;2022-12-05T05:50:17;101429.44;;;1.14;98.05
76832;BME280;65792;52.880;13.012;2022-12-05T05:52:42;101428.63;;;1.12;98.36
76832;BME280;65792;52.880;13.012;2022-12-05T05:55:08;101430.31;;;1.13;98.63
76832;BME280;65792;52.880;13.012;2022-12-05T05:57:35;101426.91;;;1.13;98.30
76832;BME280;65792;52.880;13.012;2022-12-05T06:00:05;101429.44;;;1.14;98.14
76832;BME280;65792;52.880;13.012;2022-12-05T06:02:33;101419.25;;;1.14;98.33
76832;BME280;65792;52.880;13.012;2022-12-05T06:04:58;101427.75;;;1.15;98.05
76832;BME280;65792;52.880;13.012;2022-12-05T06:07:24;101432.88;;;1.12;98.04
76832;BME280;65792;52.880;13.012;2022-12-05T06:09:50;101431.16;;;1.14;98.18
76832;BME280;65792;52.880;13.012;2022-12-05T06:12:15;101427.75;;;1.13;98.14
76832;BME280;65792;52.880;13.012;2022-12-05T06:14:41;101437.94;;;1.15;98.41
76832;BME280;65792;52.880;13.012;2022-12-05T06:17:06;101437.09;;;1.13;98.00
76832;BME280;65792;52.880;13.012;2022-12-05T06:19:32;101440.50;;;1.13;98.17
76832;BME280;65792;52.880;13.012;2022-12-05T06:21:58;101442.19;;;1.14;98.13
76832;BME280;65792;52.880;13.012;2022-12-05T06:24:23;101443.91;;;1.12;98.34
76832;BME280;65792;52.880;13.012;2022-12-05T06:26:49;101438.81;;;1.12;98.03
76832;BME280;65792;52.880;13.012;2022-12-05T06:29:14;101438.84;;;1.11;98.08
76832;BME280;65792;52.880;13.012;2022-12-05T06:31:40;101447.34;;;1.10;97.97
76832;BME280;65792;52.880;13.012;2022-12-05T06:34:06;101454.09;;;1.11;98.17
76832;BME280;65792;52.880;13.012;2022-12-05T06:36:31;101449.00;;;1.12;98.08
76832;BME280;65792;52.880;13.012;2022-12-05T06:38:58;101453.25;;;1.12;98.01
76832;BME280;65792;52.880;13.012;2022-12-05T06:41:25;101454.09;;;1.11;98.39
76832;BME280;65792;52.880;13.012;2022-12-05T06:43:56;101454.13;;;1.09;98.11
76832;BME280;65792;52.880;13.012;2022-12-05T06:46:24;101460.00;;;1.13;98.05
76832;BME280;65792;52.880;13.012;2022-12-05T06:48:55;101462.59;;;1.10;97.96
76832;BME280;65792;52.880;13.012;2022-12-05T06:51:21;101466.88;;;1.08;98.18
76832;BME280;65792;52.880;13.012;2022-12-05T06:53:47;101463.47;;;1.09;98.37
76832;BME280;65792;52.880;13.012;2022-12-05T06:56:16;101463.47;;;1.09;97.94
76832;BME280;65792;52.880;13.012;2022-12-05T06:58:44;101469.41;;;1.09;98.08
76832;BME280;65792;52.880;13.012;2022-12-05T07:01:11;101463.47;;;1.09;98.29
76832;BME280;65792;52.880;13.012;2022-12-05T07:03:56;101460.09;;;1.07;98.36
76832;BME280;65792;52.880;13.012;2022-12-05T07:06:22;101461.75;;;1.09;98.50
76832;BME280;65792;52.880;13.012;2022-12-05T07:08:47;101466.84;;;1.09;98.50
76832;BME280;65792;52.880;13.012;2022-12-05T07:11:13;101465.16;;;1.10;98.43
76832;BME280;65792;52.880;13.012;2022-12-05T07:13:38;101466.00;;;1.10;98.42
76832;BME280;65792;52.880;13.012;2022-12-05T07:16:04;101467.69;;;1.10;98.48
76832;BME280;65792;52.880;13.012;2022-12-05T07:18:31;101466.84;;;1.09;98.17
76832;BME280;65792;52.880;13.012;2022-12-05T07:20:59;101473.69;;;1.06;98.36
76832;BME280;65792;52.880;13.012;2022-12-05T07:23:26;101470.22;;;1.11;98.26
76832;BME280;65792;52.880;13.012;2022-12-05T07:25:51;101471.13;;;1.07;98.33
76832;BME280;65792;52.880;13.012;2022-12-05T07:28:17;101473.63;;;1.10;98.47
76832;BME280;65792;52.880;13.012;2022-12-05T07:30:43;101480.41;;;1.10;98.05
76832;BME280;65792;52.880;13.012;2022-12-05T07:33:08;101476.16;;;1.12;98.27
76832;BME280;65792;52.880;13.012;2022-12-05T07:35:34;101477.84;;;1.11;98.50
76832;BME280;65792;52.880;13.012;2022-12-05T07:37:59;101477.88;;;1.10;98.41
76832;BME280;65792;52.880;13.012;2022-12-05T07:40:25;101483.78;;;1.13;98.27
76832;BME280;65792;52.880;13.012;2022-12-05T07:42:50;101482.09;;;1.12;98.04
76832;BME280;65792;52.880;13.012;2022-12-05T07:45:18;101484.59;;;1.15;98.27
76832;BME280;65792;52.880;13.012;2022-12-05T07:47:44;101478.66;;;1.15;98.39
76832;BME280;65792;52.880;13.012;2022-12-05T07:50:10;101482.88;;;1.17;98.34
76832;BME280;65792;52.880;13.012;2022-12-05T07:52:35;101479.47;;;1.17;98.42
76832;BME280;65792;52.880;13.012;2022-12-05T07:55:01;101481.16;;;1.18;98.26
76832;BME280;65792;52.880;13.012;2022-12-05T07:57:28;101488.75;;;1.21;98.18
76832;BME280;65792;52.880;13.012;2022-12-05T07:59:54;101489.59;;;1.21;98.09
76832;BME280;65792;52.880;13.012;2022-12-05T08:02:20;101483.69;;;1.19;98.20
76832;BME280;65792;52.880;13.012;2022-12-05T08:04:45;101475.19;;;1.20;97.99
76832;BME280;65792;52.880;13.012;2022-12-05T08:07:11;101481.13;;;1.21;98.20
76832;BME280;65792;52.880;13.012;2022-12-05T08:09:37;101483.69;;;1.19;98.42
76832;BME280;65792;52.880;13.012;2022-12-05T08:12:03;101483.69;;;1.19;98.47
76832;BME280;65792;52.880;13.012;2022-12-05T08:14:28;101483.63;;;1.24;98.13
76832;BME280;65792;52.880;13.012;2022-12-05T08:16:54;101479.44;;;1.20;98.36
76832;BME280;65792;52.880;13.012;2022-12-05T08:19:19;101476.81;;;1.24;98.06
76832;BME280;65792;52.880;13.012;2022-12-05T08:21:45;101481.97;;;1.20;98.18
76832;BME280;65792;52.880;13.012;2022-12-05T08:24:11;101480.19;;;1.26;98.30
76832;BME280;65792;52.880;13.012;2022-12-05T08:26:37;101474.31;;;1.21;98.21
76832;BME280;65792;52.880;13.012;2022-12-05T08:29:12;101483.59;;;1.25;97.96
76832;BME280;65792;52.880;13.012;2022-12-05T08:31:46;101479.31;;;1.29;98.21
76832;BME280;65792;52.880;13.012;2022-12-05T08:34:13;101481.84;;;1.29;97.95
76832;BME280;65792;52.880;13.012;2022-12-05T08:36:39;101476.69;;;1.30;98.40
76832;BME280;65792;52.880;13.012;2022-12-05T08:39:06;101477.53;;;1.32;97.94
76832;BME280;65792;52.880;13.012;2022-12-05T08:41:32;101483.53;;;1.30;98.30
76832;BME280;65792;52.880;13.012;2022-12-05T08:44:04;101483.47;;;1.33;98.00
76832;BME280;65792;52.880;13.012;2022-12-05T08:46:31;101478.38;;;1.31;98.14
76832;BME280;65792;52.880;13.012;2022-12-05T08:48:57;101474.94;;;1.34;98.21
76832;BME280;65792;52.880;13.012;2022-12-05T08:51:22;101478.28;;;1.39;98.43
76832;BME280;65792;52.880;13.012;2022-12-05T08:53:48;101482.63;;;1.31;98.24
76832;BME280;65792;52.880;13.012;2022-12-05T08:56:13;101490.28;;;1.31;97.88
76832;BME280;65792;52.880;13.012;2022-12-05T08:58:40;101490.22;;;1.34;98.21
76832;BME280;65792;52.880;13.012;2022-12-05T09:01:11;101482.59;;;1.34;98.23
76832;BME280;65792;52.880;13.012;2022-12-05T09:03:37;101487.72;;;1.32;98.36
76832;BME280;65792;52.880;13.012;2022-12-05T09:06:14;101482.63;;;1.32;98.49
76832;BME280;65792;52.880;13.012;2022-12-05T09:08:41;101490.19;;;1.37;98.10
76832;BME280;65792;52.880;13.012;2022-12-05T09:11:12;101480.91;;;1.33;98.56
76832;BME280;65792;52.880;13.012;2022-12-05T09:13:39;101479.19;;;1.35;98.53
76832;BME280;65792;52.880;13.012;2022-12-05T09:16:10;101477.47;;;1.37;98.45
76832;BME280;65792;52.880;13.012;2022-12-05T09:18:36;101474.88;;;1.40;98.36
76832;BME280;65792;52.880;13.012;2022-12-05T09:21:12;101474.91;;;1.37;98.66
76832;BME280;65792;52.880;13.012;2022-12-05T09:23:38;101479.94;;;1.42;98.46
76832;BME280;65792;52.880;13.012;2022-12-05T09:26:06;101474.78;;;1.46;98.30
76832;BME280;65792;52.880;13.012;2022-12-05T09:28:32;101472.22;;;1.46;98.44
76832;BME280;65792;52.880;13.012;2022-12-05T09:31:00;101475.63;;;1.47;98.47
76832;BME280;65792;52.880;13.012;2022-12-05T09:33:27;101472.31;;;1.40;98.21
76832;BME280;65792;52.880;13.012;2022-12-05T09:35:53;101473.94;;;1.46;98.29
76832;BME280;65792;52.880;13.012;2022-12-05T09:38:18;101468.91;;;1.41;98.11
76832;BME280;65792;52.880;13.012;2022-12-05T09:40:44;101468.97;;;1.37;98.13
76832;BME280;65792;52.880;13.012;2022-12-05T09:46:49;101466.31;;;1.44;98.55
76832;BME280;65792;52.880;13.012;2022-12-05T09:49:16;101462.91;;;1.45;98.61
76832;BME280;65792;52.880;13.012;2022-12-05T09:51:44;101465.47;;;1.44;98.68
76832;BME280;65792;52.880;13.012;2022-12-05T09:54:12;101457.84;;;1.44;98.24
76832;BME280;65792;52.880;13.012;2022-12-05T09:56:40;101458.63;;;1.47;98.26
76832;BME280;65792;52.880;13.012;2022-12-05T09:59:12;101459.50;;;1.46;98.19
76832;BME280;65792;52.880;13.012;2022-12-05T10:08:01;101460.41;;;1.42;98.03
76832;BME280;65792;52.880;13.012;2022-12-05T10:11:01;101454.31;;;1.52;98.30
76832;BME280;65792;52.880;13.012;2022-12-05T10:13:37;101461.19;;;1.46;98.33
76832;BME280;65792;52.880;13.012;2022-12-05T10:16:11;101456.13;;;1.44;98.10
76832;BME280;65792;52.880;13.012;2022-12-05T10:19:17;101462.91;;;1.45;98.24
76832;BME280;65792;52.880;13.012;2022-12-05T10:21:58;101461.19;;;1.47;98.49
76832;BME280;65792;52.880;13.012;2022-12-05T10:24:48;101460.38;;;1.44;97.95
76832;BME280;65792;52.880;13.012;2022-12-05T10:27:26;101458.63;;;1.47;98.18
76832;BME280;65792;52.880;13.012;2022-12-05T10:30:04;101461.13;;;1.50;98.12
76832;BME280;65792;52.880;13.012;2022-12-05T10:32:59;101457.75;;;1.50;98.13
76832;BME280;65792;52.880;13.012;2022-12-05T10:35:35;101449.25;;;1.49;98.03
76832;BME280;65792;52.880;13.012;2022-12-05T10:38:06;101455.19;;;1.50;98.31
76832;BME280;65792;52.880;13.012;2022-12-05T10:40:38;101456.97;;;1.45;98.10
76832;BME280;65792;52.880;13.012;2022-12-05T10:43:06;101458.59;;;1.49;98.29
76832;BME280;65792;52.880;13.012;2022-12-05T10:45:36;101454.31;;;1.52;98.77
76832;BME280;65792;52.880;13.012;2022-12-05T10:48:04;101449.31;;;1.46;98.41
76832;BME280;65792;52.880;13.012;2022-12-05T10:50:37;101445.09;;;1.44;98.63
76832;BME280;65792;52.880;13.012;2022-12-05T10:53:04;101449.25;;;1.49;98.44
76832;BME280;65792;52.880;13.012;2022-12-05T10:55:39;101445.00;;;1.50;98.61
76832;BME280;65792;52.880;13.012;2022-12-05T10:58:14;101450.06;;;1.51;98.25
76832;BME280;65792;52.880;13.012;2022-12-05T11:00:42;101441.63;;;1.48;98.29
76832;BME280;65792;52.880;13.012;2022-12-05T11:03:38;101447.47;;;1.56;98.55
76832;BME280;65792;52.880;13.012;2022-12-05T11:08:39;101441.53;;;1.54;98.49
76832;BME280;65792;52.880;13.012;2022-12-05T11:11:17;101442.44;;;1.51;98.41
76832;BME280;65792;52.880;13.012;2022-12-05T11:13:57;101435.69;;;1.47;98.22
76832;BME280;65792;52.880;13.012;2022-12-05T11:16:27;101440.66;;;1.56;98.46
76832;BME280;65792;52.880;13.012;2022-12-05T11:18:53;101442.44;;;1.51;98.23
76832;BME280;65792;52.880;13.012;2022-12-05T11:21:18;101446.63;;;1.55;98.63
76832;BME280;65792;52.880;13.012;2022-12-05T11:23:46;101442.41;;;1.53;98.53
76832;BME280;65792;52.880;13.012;2022-12-05T11:26:35;101439.91;;;1.50;98.58
76832;BME280;65792;52.880;13.012;2022-12-05T11:29:02;101438.16;;;1.53;98.38
76832;BME280;65792;52.880;13.012;2022-12-05T11:31:30;101433.88;;;1.55;98.36
76832;BME280;65792;52.880;13.012;2022-12-05T11:34:16;101428.78;;;1.55;98.47
76832;BME280;65792;52.880;13.012;2022-12-05T11:37:08;101430.47;;;1.56;98.24
76832;BME280;65792;52.880;13.012;2022-12-05T11:39:36;101434.66;;;1.59;98.30
76832;BME280;65792;52.880;13.012;2022-12-05T11:53:28;101424.50;;;1.57;98.35
76832;BME280;65792;52.880;13.012;2022-12-05T11:56:38;101423.69;;;1.55;98.44
76832;BME280;65792;52.880;13.012;2022-12-05T12:04:57;101416.84;;;1.57;98.87
76832;BME280;65792;52.880;13.012;2022-12-05T12:10:25;101412.56;;;1.61;98.47
76832;BME280;65792;52.880;13.012;2022-12-05T12:18:27;101412.63;;;1.56;98.80
76832;BME280;65792;52.880;13.012;2022-12-05T12:21:15;101417.69;;;1.58;98.67
76832;BME280;65792;52.880;13.012;2022-12-05T12:29:59;101417.63;;;1.62;98.35
76832;BME280;65792;52.880;13.012;2022-12-05T12:35:29;101415.91;;;1.63;98.33
76832;BME280;65792;52.880;13.012;2022-12-05T12:40:54;101412.47;;;1.65;98.68
76832;BME280;65792;52.880;13.012;2022-12-05T12:44:15;101409.97;;;1.62;98.43
76832;BME280;65792;52.880;13.012;2022-12-05T12:46:54;101405.72;;;1.63;98.74
76832;BME280;65792;52.880;13.012;2022-12-05T12:49:52;101402.22;;;1.70;98.64
76832;BME280;65792;52.880;13.012;2022-12-05T12:52:27;101400.56;;;1.67;98.35
76832;BME280;65792;52.880;13.012;2022-12-05T13:06:14;101392.88;;;1.69;98.55
76832;BME280;65792;52.880;13.012;2022-12-05T13:08:46;101387.69;;;1.74;98.41
76832;BME280;65792;52.880;13.012;2022-12-05T13:11:16;101395.47;;;1.67;98.29
76832;BME280;65792;52.880;13.012;2022-12-05T13:13:51;101395.31;;;1.74;98.83
76832;BME280;65792;52.880;13.012;2022-12-05T13:16:30;101394.44;;;1.75;98.75
76832;BME280;65792;52.880;13.012;2022-12-05T13:18:57;101391.19;;;1.70;98.42
76832;BME280;65792;52.880;13.012;2022-12-05T13:21:24;101400.50;;;1.71;98.51
76832;BME280;65792;52.880;13.012;2022-12-05T13:23:52;101397.09;;;1.72;98.84
76832;BME280;65792;52.880;13.012;2022-12-05T13:26:20;101398.91;;;1.65;98.97
76832;BME280;65792;52.880;13.012;2022-12-05T13:28:58;101397.06;;;1.73;98.60
76832;BME280;65792;52.880;13.012;2022-12-05T13:31:37;101392.78;;;1.74;98.69
76832;BME280;65792;52.880;13.012;2022-12-05T13:34:04;101389.50;;;1.69;98.53
76832;BME280;65792;52.880;13.012;2022-12-05T13:36:38;101392.00;;;1.72;98.88
76832;BME280;65792;52.880;13.012;2022-12-05T13:39:23;101397.19;;;1.65;98.38
76832;BME280;65792;52.880;13.012;2022-12-05T13:42:22;101406.34;;;1.74;98.95
76832;BME280;65792;52.880;13.012;2022-12-05T13:45:10;101406.28;;;1.79;98.66
76832;BME280;65792;52.880;13.012;2022-12-05T13:48:03;101396.06;;;1.80;98.50
76832;BME280;65792;52.880;13.012;2022-12-05T13:53:02;101393.56;;;1.77;98.69
76832;BME280;65792;52.880;13.012;2022-12-05T13:55:36;101402.91;;;1.77;98.70
76832;BME280;65792;52.880;13.012;2022-12-05T14:00:43;101404.53;;;1.81;98.83
76832;BME280;65792;52.880;13.012;2022-12-05T14:04:02;101403.72;;;1.79;98.65
76832;BME280;65792;52.880;13.012;2022-12-05T14:06:03;101398.63;;;1.79;98.81
76832;BME280;65792;52.880;13.012;2022-12-05T14:15:52;101397.00;;;1.75;98.78
76832;BME280;65792;52.880;13.012;2022-12-05T14:32:08;101385.97;;;1.74;98.72
76832;BME280;65792;52.880;13.012;2022-12-05T14:37:52;101392.84;;;1.71;98.90
76832;BME280;65792;52.880;13.012;2022-12-05T14:40:37;101386.81;;;1.75;98.88
76832;BME280;65792;52.880;13.012;2022-12-05T14:43:28;101385.22;;;1.71;98.76
76832;BME280;65792;52.880;13.012;2022-12-05T14:46:03;101388.63;;;1.70;99.27
76832;BME280;65792;52.880;13.012;2022-12-05T14:48:39;101386.91;;;1.72;98.87
76832;BME280;65792;52.880;13.012;2022-12-05T14:54:03;101387.69;;;1.74;99.10
76832;BME280;65792;52.880;13.012;2022-12-05T14:56:31;101389.34;;;1.75;98.91
76832;BME280;65792;52.880;13.012;2022-12-05T14:59:23;101390.16;;;1.77;99.04
76832;BME280;65792;52.880;13.012;2022-12-05T15:01:54;101394.44;;;1.76;98.90
76832;BME280;65792;52.880;13.012;2022-12-05T15:04:45;101397.06;;;1.73;98.82
76832;BME280;65792;52.880;13.012;2022-12-05T15:07:20;101393.72;;;1.70;98.78
76832;BME280;65792;52.880;13.012;2022-12-05T15:12:46;101398.78;;;1.71;98.77
76832;BME280;65792;52.880;13.012;2022-12-05T15:17:58;101401.31;;;1.73;99.22
76832;BME280;65792;52.880;13.012;2022-12-05T15:20:48;101404.72;;;1.72;98.83
76832;BME280;65792;52.880;13.012;2022-12-05T15:23:52;101403.06;;;1.71;99.00
76832;BME280;65792;52.880;13.012;2022-12-05T15:29:08;101403.03;;;1.72;99.22